createdAt,value
2022-09-12T00:01:25.444Z,100.00
2022-09-12T00:03:54.203Z,100.00
2022-09-12T00:06:24.306Z,100.00
2022-09-12T00:08:55.456Z,100.00
2022-09-12T00:11:23.899Z,100.00
2022-09-12T00:13:56.236Z,100.00
2022-09-12T00:16:26.064Z,100.00
2022-09-12T00:18:56.458Z,100.00
2022-09-12T00:21:24.566Z,100.00
2022-09-12T00:23:52.635Z,100.00
2022-09-12T00:26:21.747Z,100.00
2022-09-12T00:28:50.344Z,100.00
2022-09-12T00:31:21.493Z,100.00
2022-09-12T00:33:49.229Z,100.00
2022-09-12T00:36:19.163Z,100.00
2022-09-12T00:38:47.705Z,100.00
2022-09-12T00:41:18.960Z,100.00
2022-09-12T00:43:49.625Z,100.00
2022-09-12T00:46:28.036Z,100.00
2022-09-12T00:49:02.771Z,100.00
2022-09-12T00:51:33.928Z,100.00
2022-09-12T00:54:06.996Z,100.00
2022-09-12T00:56:36.530Z,100.00
2022-09-12T00:59:08.371Z,100.00
2022-09-12T01:01:38.813Z,100.00
2022-09-12T01:04:06.771Z,100.00
2022-09-12T01:06:38.444Z,100.00
2022-09-12T01:09:06.487Z,100.00
2022-09-12T01:11:38.419Z,100.00
2022-09-12T01:14:07.428Z,100.00
2022-09-12T01:16:38.109Z,100.00
2022-09-12T01:19:26.430Z,100.00
2022-09-12T01:22:12.475Z,100.00
2022-09-12T01:25:01.308Z,100.00
2022-09-12T01:27:45.048Z,100.00
2022-09-12T01:30:39.858Z,100.00
2022-09-12T01:33:24.919Z,100.00
2022-09-12T01:36:02.932Z,100.00
2022-09-12T01:38:39.670Z,100.00
2022-09-12T01:41:18.930Z,100.00
2022-09-12T01:43:53.451Z,100.00
2022-09-12T01:46:28.605Z,100.00
2022-09-12T01:49:01.498Z,100.00
2022-09-12T01:51:35.952Z,100.00
2022-09-12T01:54:09.744Z,100.00
2022-09-12T01:56:41.303Z,100.00
2022-09-12T01:59:16.014Z,100.00
2022-09-12T02:01:49.692Z,100.00
2022-09-12T02:04:21.914Z,100.00
2022-09-12T02:06:53.354Z,100.00
2022-09-12T02:09:24.875Z,100.00
2022-09-12T02:11:57.468Z,100.00
2022-09-12T02:14:27.695Z,100.00
2022-09-12T02:17:02.283Z,100.00
2022-09-12T02:19:35.374Z,100.00
2022-09-12T02:22:05.858Z,100.00
2022-09-12T02:24:39.655Z,100.00
2022-09-12T02:27:13.623Z,100.00
2022-09-12T02:29:41.709Z,100.00
2022-09-12T02:32:20.034Z,100.00
2022-09-12T02:34:53.839Z,100.00
2022-09-12T02:37:30.260Z,100.00
2022-09-12T02:39:58.930Z,100.00
2022-09-12T02:42:27.049Z,100.00
2022-09-12T02:44:57.130Z,100.00
2022-09-12T02:47:29.892Z,100.00
2022-09-12T02:49:57.977Z,100.00
2022-09-12T02:52:26.564Z,100.00
2022-09-12T02:54:56.280Z,100.00
2022-09-12T02:57:24.059Z,100.00
2022-09-12T02:59:56.715Z,100.00
2022-09-12T03:02:33.331Z,100.00
2022-09-12T03:05:15.488Z,100.00
2022-09-12T03:08:07.503Z,100.00
2022-09-12T03:10:44.060Z,100.00
2022-09-12T03:13:21.679Z,100.00
2022-09-12T03:16:00.403Z,100.00
2022-09-12T03:18:43.648Z,100.00
2022-09-12T03:21:17.932Z,100.00
2022-09-12T03:23:52.618Z,100.00
2022-09-12T03:26:28.534Z,100.00
2022-09-12T03:28:59.202Z,100.00
2022-09-12T03:31:27.044Z,100.00
2022-09-12T03:33:56.127Z,100.00
2022-09-12T03:36:26.527Z,100.00
2022-09-12T03:38:54.434Z,100.00
2022-09-12T03:41:22.620Z,100.00
2022-09-12T03:43:50.423Z,100.00
2022-09-12T03:46:18.196Z,100.00
2022-09-12T03:48:45.997Z,100.00
2022-09-12T03:51:15.109Z,100.00
2022-09-12T03:53:43.305Z,100.00
2022-09-12T03:56:13.214Z,100.00
2022-09-12T03:58:41.339Z,100.00
2022-09-12T04:01:12.570Z,100.00
2022-09-12T04:03:41.023Z,100.00
2022-09-12T04:06:09.823Z,100.00
2022-09-12T04:08:39.640Z,100.00
2022-09-12T04:11:08.384Z,100.00
2022-09-12T04:13:36.560Z,100.00
2022-09-12T04:16:05.476Z,100.00
2022-09-12T04:18:33.276Z,100.00
2022-09-12T04:21:05.020Z,100.00
2022-09-12T04:23:32.778Z,100.00
2022-09-12T04:26:06.356Z,100.00
2022-09-12T04:28:34.838Z,100.00
2022-09-12T04:31:04.765Z,100.00
2022-09-12T04:33:32.700Z,100.00
2022-09-12T04:36:05.170Z,100.00
2022-09-12T04:38:33.146Z,100.00
2022-09-12T04:41:02.403Z,100.00
2022-09-12T04:43:30.071Z,100.00
2022-09-12T04:45:58.408Z,100.00
2022-09-12T04:48:27.015Z,100.00
2022-09-12T04:50:54.699Z,100.00
2022-09-12T04:53:22.398Z,100.00
2022-09-12T04:55:50.091Z,100.00
2022-09-12T04:58:19.204Z,100.00
2022-09-12T05:00:46.875Z,100.00
2022-09-12T05:03:14.703Z,100.00
2022-09-12T05:05:44.279Z,100.00
2022-09-12T05:08:13.184Z,100.00
2022-09-12T05:10:41.416Z,100.00
2022-09-12T05:13:09.399Z,100.00
2022-09-12T05:15:38.999Z,100.00
2022-09-12T05:18:07.500Z,100.00
2022-09-12T05:20:35.447Z,100.00
2022-09-12T05:23:03.208Z,100.00
2022-09-12T05:25:31.179Z,100.00
2022-09-12T05:27:58.963Z,100.00
2022-09-12T05:30:26.653Z,100.00
2022-09-12T05:32:56.323Z,100.00
2022-09-12T05:35:24.096Z,100.00
2022-09-12T05:37:52.510Z,100.00
2022-09-12T05:40:23.291Z,100.00
2022-09-12T05:42:51.030Z,100.00
2022-09-12T05:45:18.726Z,100.00
2022-09-12T05:47:47.791Z,100.00
2022-09-12T05:50:17.100Z,100.00
2022-09-12T05:52:46.058Z,100.00
2022-09-12T05:55:14.339Z,100.00
2022-09-12T05:57:45.829Z,100.00
2022-09-12T06:00:15.528Z,100.00
2022-09-12T06:02:43.600Z,100.00
2022-09-12T06:05:11.777Z,100.00
2022-09-12T06:07:40.895Z,100.00
2022-09-12T06:10:09.274Z,100.00
2022-09-12T06:12:36.960Z,100.00
2022-09-12T06:15:05.171Z,100.00
2022-09-12T06:17:33.304Z,100.00
2022-09-12T06:20:01.798Z,100.00
2022-09-12T06:22:29.494Z,100.00
2022-09-12T06:24:58.517Z,100.00
2022-09-12T06:27:26.608Z,100.00
2022-09-12T06:29:54.343Z,100.00
2022-09-12T06:32:22.025Z,100.00
2022-09-12T06:34:49.816Z,100.00
2022-09-12T06:37:17.527Z,100.00
2022-09-12T06:39:45.277Z,100.00
2022-09-12T06:42:14.863Z,100.00
2022-09-12T06:44:52.022Z,100.00
2022-09-12T06:47:20.622Z,100.00
2022-09-12T06:49:48.320Z,100.00
2022-09-12T06:52:16.025Z,100.00
2022-09-12T06:54:43.667Z,100.00
2022-09-12T06:57:11.364Z,100.00
2022-09-12T06:59:40.410Z,100.00
2022-09-12T07:02:09.949Z,100.00
2022-09-12T07:04:37.734Z,100.00
2022-09-12T07:07:05.757Z,100.00
2022-09-12T07:09:33.467Z,100.00
2022-09-12T07:12:04.279Z,100.00
2022-09-12T07:14:32.033Z,100.00
2022-09-12T07:17:01.475Z,100.00
2022-09-12T07:19:29.609Z,100.00
2022-09-12T07:21:58.795Z,100.00
2022-09-12T07:24:26.701Z,100.00
2022-09-12T07:26:54.572Z,100.00
2022-09-12T07:29:38.127Z,100.00
2022-09-12T07:32:07.766Z,100.00
2022-09-12T07:34:36.081Z,100.00
2022-09-12T07:37:04.015Z,100.00
2022-09-12T07:39:32.344Z,100.00
2022-09-12T07:42:00.394Z,100.00
2022-09-12T07:44:28.148Z,100.00
2022-09-12T07:46:56.128Z,100.00
2022-09-12T07:49:25.242Z,100.00
2022-09-12T07:51:53.145Z,100.00
2022-09-12T07:54:21.011Z,100.00
2022-09-12T07:56:48.863Z,100.00
2022-09-12T07:59:29.956Z,100.00
2022-09-12T08:02:03.899Z,100.00
2022-09-12T08:04:33.030Z,100.00
2022-09-12T08:07:00.722Z,100.00
2022-09-12T08:09:28.423Z,100.00
2022-09-12T08:11:56.481Z,100.00
2022-09-12T08:14:24.291Z,100.00
2022-09-12T08:16:51.980Z,100.00
2022-09-12T08:19:19.868Z,100.00
2022-09-12T08:21:48.999Z,100.00
2022-09-12T08:24:16.811Z,100.00
2022-09-12T08:26:44.462Z,100.00
2022-09-12T08:29:12.660Z,100.00
2022-09-12T08:31:42.435Z,100.00
2022-09-12T08:34:10.853Z,100.00
2022-09-12T08:36:38.605Z,100.00
2022-09-12T08:39:08.892Z,100.00
2022-09-12T08:41:40.707Z,100.00
2022-09-12T08:44:27.706Z,100.00
2022-09-12T08:47:11.920Z,100.00
2022-09-12T08:49:48.963Z,100.00
2022-09-12T08:52:22.227Z,100.00
2022-09-12T08:54:51.848Z,100.00
2022-09-12T08:57:19.567Z,100.00
2022-09-12T08:59:48.332Z,100.00
2022-09-12T09:02:42.497Z,100.00
2022-09-12T09:05:20.134Z,100.00
2022-09-12T09:08:05.691Z,100.00
2022-09-12T09:10:43.719Z,100.00
2022-09-12T09:13:39.219Z,100.00
2022-09-12T09:16:13.930Z,100.00
2022-09-12T09:18:44.698Z,100.00
2022-09-12T09:21:22.817Z,100.00
2022-09-12T09:23:54.403Z,100.00
2022-09-12T09:26:29.085Z,100.00
2022-09-12T09:29:00.492Z,100.00
2022-09-12T09:31:34.641Z,100.00
2022-09-12T09:34:02.488Z,100.00
2022-09-12T09:36:41.956Z,100.00
2022-09-12T09:39:17.503Z,100.00
2022-09-12T09:42:00.207Z,100.00
2022-09-12T09:44:29.902Z,100.00
2022-09-12T09:47:00.434Z,100.00
2022-09-12T09:49:32.276Z,100.00
2022-09-12T09:52:01.790Z,100.00
2022-09-12T09:54:35.936Z,100.00
2022-09-12T09:57:05.599Z,100.00
2022-09-12T09:59:35.012Z,100.00
2022-09-12T10:02:05.339Z,100.00
2022-09-12T10:04:39.359Z,100.00
2022-09-12T10:07:19.342Z,100.00
2022-09-12T10:10:06.990Z,100.00
2022-09-12T10:12:36.176Z,100.00
2022-09-12T10:15:17.989Z,96.84
2022-09-12T10:17:47.338Z,95.52
2022-09-12T10:20:33.062Z,92.17
2022-09-12T10:23:02.377Z,94.08
2022-09-12T10:25:30.342Z,89.16
2022-09-12T10:28:02.804Z,80.76
2022-09-12T10:30:30.728Z,84.79
2022-09-12T10:33:06.799Z,80.85
2022-09-12T10:35:46.451Z,78.84
2022-09-12T10:38:18.870Z,79.52
2022-09-12T10:40:46.597Z,77.10
2022-09-12T10:43:27.470Z,76.13
2022-09-12T10:45:58.874Z,72.84
2022-09-12T10:48:30.270Z,75.05
2022-09-12T10:50:59.942Z,71.80
2022-09-12T10:53:34.119Z,69.58
2022-09-12T10:56:09.407Z,69.63
2022-09-12T10:58:53.609Z,69.82
2022-09-12T11:01:36.305Z,64.67
2022-09-12T11:04:20.078Z,64.60
2022-09-12T11:06:56.427Z,62.77
2022-09-12T11:09:33.604Z,61.44
2022-09-12T11:12:10.022Z,62.26
2022-09-12T11:14:53.619Z,60.61
2022-09-12T11:17:30.423Z,60.29
2022-09-12T11:20:27.316Z,58.34
2022-09-12T11:23:27.691Z,58.06
2022-09-12T11:26:04.102Z,57.38
2022-09-12T11:28:47.077Z,56.47
2022-09-12T11:31:32.833Z,57.20
2022-09-12T11:34:03.796Z,54.25
2022-09-12T11:36:39.913Z,55.38
2022-09-12T11:39:15.799Z,52.35
2022-09-12T11:41:47.954Z,53.59
2022-09-12T11:44:22.249Z,51.74
2022-09-12T11:46:52.230Z,54.39
2022-09-12T11:49:33.553Z,51.56
2022-09-12T11:52:08.358Z,51.96
2022-09-12T11:54:40.759Z,49.84
2022-09-12T11:57:17.069Z,49.90
2022-09-12T11:59:50.775Z,48.88
2022-09-12T12:02:26.426Z,48.46
2022-09-12T12:05:05.952Z,50.35
2022-09-12T12:07:45.585Z,48.64
2022-09-12T12:10:26.643Z,49.46
2022-09-12T12:12:56.095Z,47.40
2022-09-12T12:15:25.258Z,48.09
2022-09-12T12:18:04.632Z,45.95
2022-09-12T12:20:32.615Z,47.14
2022-09-12T12:23:00.925Z,46.13
2022-09-12T12:25:41.511Z,43.03
2022-09-12T12:28:09.580Z,44.15
2022-09-12T12:31:05.388Z,43.01
2022-09-12T12:34:01.739Z,44.37
2022-09-12T12:36:50.164Z,42.97
2022-09-12T12:40:03.102Z,41.94
2022-09-12T12:43:05.116Z,42.73
2022-09-12T12:46:06.930Z,43.53
2022-09-12T12:48:58.870Z,41.63
2022-09-12T12:51:51.231Z,41.00
2022-09-12T12:54:49.497Z,41.23
2022-09-12T12:57:20.757Z,42.26
2022-09-12T12:59:51.869Z,41.91
2022-09-12T13:02:28.870Z,41.62
2022-09-12T13:05:01.047Z,42.37
2022-09-12T13:07:33.284Z,41.72
2022-09-12T13:10:02.286Z,41.14
2022-09-12T13:12:33.971Z,42.50
2022-09-12T13:15:30.343Z,42.85
2022-09-12T13:18:02.561Z,42.79
2022-09-12T13:20:39.263Z,44.50
2022-09-12T13:23:07.001Z,44.09
2022-09-12T13:25:36.635Z,43.96
2022-09-12T13:28:07.735Z,44.70
2022-09-12T13:30:41.518Z,47.45
2022-09-12T13:33:20.649Z,47.37
2022-09-12T13:36:31.639Z,45.80
2022-09-12T13:39:11.808Z,46.79
2022-09-12T13:41:57.716Z,47.02
2022-09-12T13:44:27.467Z,47.48
2022-09-12T13:47:02.729Z,48.18
2022-09-12T13:49:35.321Z,49.60
2022-09-12T13:52:07.585Z,48.89
2022-09-12T13:54:40.156Z,50.18
2022-09-12T13:57:07.893Z,50.66
2022-09-12T13:59:44.516Z,49.85
2022-09-12T14:02:20.289Z,48.49
2022-09-12T14:05:06.550Z,48.35
2022-09-12T14:07:40.061Z,48.16
2022-09-12T14:10:08.702Z,48.39
2022-09-12T14:12:40.212Z,47.61
2022-09-12T14:15:16.928Z,48.16
2022-09-12T14:17:52.036Z,49.66
2022-09-12T14:20:23.195Z,50.63
2022-09-12T14:22:53.794Z,51.46
2022-09-12T14:25:24.502Z,51.75
2022-09-12T14:27:55.326Z,49.68
2022-09-12T14:30:26.212Z,49.89
2022-09-12T14:33:18.165Z,49.89
2022-09-12T14:35:47.864Z,51.97
2022-09-12T14:38:23.414Z,49.83
2022-09-12T14:40:54.301Z,50.69
2022-09-12T14:43:27.593Z,50.44
2022-09-12T14:45:57.343Z,51.84
2022-09-12T14:48:25.331Z,52.14
2022-09-12T14:50:55.007Z,53.28
2022-09-12T14:53:31.304Z,51.91
2022-09-12T14:56:07.140Z,52.28
2022-09-12T14:58:35.135Z,52.45
2022-09-12T15:01:05.814Z,53.35
2022-09-12T15:03:36.788Z,53.49
2022-09-12T15:06:07.976Z,53.45
2022-09-12T15:08:37.168Z,52.47
2022-09-12T15:11:07.927Z,53.02
2022-09-12T15:13:41.081Z,53.25
2022-09-12T15:16:11.285Z,53.08
2022-09-12T15:18:39.368Z,54.14
2022-09-12T15:21:08.866Z,54.53
2022-09-12T15:23:41.395Z,55.70
2022-09-12T15:26:13.253Z,56.43
2022-09-12T15:28:41.242Z,55.63
2022-09-12T15:31:14.831Z,54.97
2022-09-12T15:33:42.665Z,55.23
2022-09-12T15:36:15.684Z,55.22
2022-09-12T15:38:45.496Z,55.46
2022-09-12T15:41:16.748Z,57.13
2022-09-12T15:43:44.819Z,56.59
2022-09-12T15:46:13.717Z,57.57
2022-09-12T15:48:41.805Z,58.89
2022-09-12T15:51:15.479Z,56.92
2022-09-12T15:53:45.231Z,56.57
2022-09-12T15:56:13.291Z,56.05
2022-09-12T15:58:57.088Z,58.37
2022-09-12T16:01:25.347Z,59.34
2022-09-12T16:03:53.164Z,57.40
2022-09-12T16:06:20.906Z,59.04
2022-09-12T16:08:50.257Z,58.45
2022-09-12T16:11:22.357Z,60.63
2022-09-12T16:13:50.356Z,60.23
2022-09-12T16:16:18.079Z,60.83
2022-09-12T16:18:46.000Z,59.79
2022-09-12T16:21:15.531Z,61.47
2022-09-12T16:23:43.971Z,63.43
2022-09-12T16:26:13.223Z,65.76
2022-09-12T16:28:41.195Z,64.16
2022-09-12T16:31:11.821Z,62.02
2022-09-12T16:33:40.607Z,63.32
2022-09-12T16:36:10.343Z,64.45
2022-09-12T16:38:42.354Z,62.95
2022-09-12T16:41:10.440Z,63.11
2022-09-12T16:43:39.959Z,65.40
2022-09-12T16:46:10.250Z,65.53
2022-09-12T16:48:38.886Z,65.09
2022-09-12T16:51:07.797Z,66.38
2022-09-12T16:53:37.939Z,64.94
2022-09-12T16:56:09.431Z,63.69
2022-09-12T16:58:42.034Z,65.20
2022-09-12T17:01:12.144Z,65.72
2022-09-12T17:03:40.502Z,66.64
2022-09-12T17:06:10.956Z,64.96
2022-09-12T17:08:40.683Z,66.28
2022-09-12T17:11:10.679Z,66.08
2022-09-12T17:14:03.193Z,67.60
2022-09-12T17:16:31.142Z,69.63
2022-09-12T17:18:58.919Z,69.17
2022-09-12T17:21:26.698Z,69.42
2022-09-12T17:23:54.418Z,71.25
2022-09-12T17:26:22.224Z,71.77
2022-09-12T17:28:51.279Z,71.09
2022-09-12T17:31:19.754Z,69.71
2022-09-12T17:33:47.813Z,70.73
2022-09-12T17:36:18.749Z,72.48
2022-09-12T17:38:47.358Z,73.05
2022-09-12T17:41:17.836Z,73.04
2022-09-12T17:43:46.392Z,71.41
2022-09-12T17:46:15.646Z,74.23
2022-09-12T17:48:43.702Z,74.18
2022-09-12T17:51:13.431Z,74.88
2022-09-12T17:53:41.642Z,76.78
2022-09-12T17:56:10.917Z,77.74
2022-09-12T17:58:39.244Z,75.86
2022-09-12T18:01:26.664Z,76.35
2022-09-12T18:03:56.718Z,78.55
2022-09-12T18:06:25.318Z,79.16
2022-09-12T18:08:53.055Z,78.82
2022-09-12T18:11:20.947Z,78.94
2022-09-12T18:13:48.769Z,79.83
2022-09-12T18:16:17.047Z,80.63
2022-09-12T18:18:44.822Z,80.59
2022-09-12T18:21:14.309Z,81.42
2022-09-12T18:23:42.055Z,83.08
2022-09-12T18:26:12.499Z,82.62
2022-09-12T18:28:42.663Z,83.38
2022-09-12T18:31:15.604Z,83.90
2022-09-12T18:33:43.865Z,84.17
2022-09-12T18:36:14.839Z,84.13
2022-09-12T18:38:43.231Z,84.21
2022-09-12T18:41:12.414Z,83.13
2022-09-12T18:43:40.108Z,83.98
2022-09-12T18:46:09.603Z,83.12
2022-09-12T18:48:37.581Z,82.47
2022-09-12T18:51:08.008Z,83.25
2022-09-12T18:53:37.814Z,81.72
2022-09-12T18:56:09.276Z,82.70
2022-09-12T18:58:37.103Z,84.38
2022-09-12T19:01:12.947Z,85.86
2022-09-12T19:03:40.729Z,87.03
2022-09-12T19:06:11.730Z,87.88
2022-09-12T19:08:41.417Z,88.00
2022-09-12T19:11:10.205Z,88.91
2022-09-12T19:13:39.784Z,88.42
2022-09-12T19:16:10.022Z,87.92
2022-09-12T19:18:38.775Z,87.53
2022-09-12T19:21:07.940Z,87.50
2022-09-12T19:23:36.658Z,89.48
2022-09-12T19:26:07.829Z,89.56
2022-09-12T19:28:36.212Z,88.63
2022-09-12T19:31:05.636Z,87.98
2022-09-12T19:33:33.765Z,87.00
2022-09-12T19:36:02.709Z,87.10
2022-09-12T19:38:31.054Z,88.40
2022-09-12T19:41:00.215Z,88.01
2022-09-12T19:43:30.584Z,88.39
2022-09-12T19:45:58.612Z,88.54
2022-09-12T19:48:26.598Z,87.46
2022-09-12T19:50:54.432Z,87.76
2022-09-12T19:53:22.198Z,88.28
2022-09-12T19:55:50.040Z,86.79
2022-09-12T19:58:17.787Z,87.44
2022-09-12T20:00:46.923Z,86.71
2022-09-12T20:03:14.608Z,86.77
2022-09-12T20:05:42.994Z,85.38
2022-09-12T20:08:10.787Z,84.37
2022-09-12T20:10:38.471Z,86.61
2022-09-12T20:13:07.260Z,86.07
2022-09-12T20:15:35.006Z,82.84
2022-09-12T20:18:04.282Z,85.75
2022-09-12T20:20:32.629Z,84.96
2022-09-12T20:23:00.361Z,86.14
2022-09-12T20:25:28.193Z,83.80
2022-09-12T20:27:59.937Z,84.86
2022-09-12T20:30:28.210Z,86.42
2022-09-12T20:32:55.925Z,87.58
2022-09-12T20:35:25.779Z,84.20
2022-09-12T20:37:53.554Z,85.85
2022-09-12T20:40:21.350Z,85.92
2022-09-12T20:42:49.316Z,84.49
2022-09-12T20:45:17.056Z,85.12
2022-09-12T20:47:44.813Z,86.98
2022-09-12T20:50:12.757Z,89.15
2022-09-12T20:52:41.905Z,88.37
2022-09-12T20:55:10.872Z,87.67
2022-09-12T20:57:38.609Z,90.62
2022-09-12T21:00:09.021Z,89.08
2022-09-12T21:02:36.840Z,89.69
2022-09-12T21:05:04.999Z,90.08
2022-09-12T21:07:32.799Z,89.59
2022-09-12T21:10:01.899Z,89.26
2022-09-12T21:12:29.623Z,89.77
2022-09-12T21:14:57.386Z,88.99
2022-09-12T21:17:25.583Z,89.83
2022-09-12T21:19:53.371Z,90.62
2022-09-12T21:22:21.062Z,87.74
2022-09-12T21:24:48.790Z,86.79
2022-09-12T21:27:17.862Z,86.54
2022-09-12T21:29:45.591Z,85.42
2022-09-12T21:32:14.379Z,87.43
2022-09-12T21:34:42.201Z,86.49
2022-09-12T21:37:09.977Z,86.58
2022-09-12T21:39:37.752Z,87.32
2022-09-12T21:42:05.589Z,85.01
2022-09-12T21:44:34.641Z,84.97
2022-09-12T21:47:02.392Z,82.13
2022-09-12T21:49:30.087Z,85.74
2022-09-12T21:51:57.909Z,85.83
2022-09-12T21:54:25.633Z,85.80
2022-09-12T21:56:53.355Z,85.48
2022-09-12T21:59:21.310Z,86.77
2022-09-12T22:01:50.480Z,88.02
2022-09-12T22:04:18.220Z,89.58
2022-09-12T22:06:45.905Z,85.47
2022-09-12T22:09:14.082Z,85.63
2022-09-12T22:11:41.784Z,87.87
2022-09-12T22:14:09.491Z,85.20
2022-09-12T22:16:37.232Z,86.14
2022-09-12T22:19:06.266Z,86.47
2022-09-12T22:21:33.959Z,84.24
2022-09-12T22:24:19.167Z,85.92
2022-09-12T22:26:47.393Z,87.84
2022-09-12T22:29:15.149Z,87.65
2022-09-12T22:31:43.128Z,89.01
2022-09-12T22:34:12.329Z,87.89
2022-09-12T22:36:40.496Z,87.84
2022-09-12T22:39:08.712Z,87.03
2022-09-12T22:41:36.415Z,90.36
2022-09-12T22:44:04.159Z,88.96
2022-09-12T22:46:32.488Z,87.26
2022-09-12T22:49:00.404Z,88.03
2022-09-12T22:51:29.458Z,86.65
2022-09-12T22:53:57.458Z,87.48
2022-09-12T22:56:25.695Z,90.18
2022-09-12T22:58:53.820Z,91.25
2022-09-12T23:01:21.639Z,91.13
2022-09-12T23:03:49.440Z,91.13
2022-09-12T23:06:20.482Z,90.96
2022-09-12T23:08:49.564Z,91.00
2022-09-12T23:11:19.138Z,92.57
2022-09-12T23:13:48.855Z,92.54
2022-09-12T23:16:19.287Z,92.78
2022-09-12T23:18:47.275Z,93.08
2022-09-12T23:21:17.291Z,93.26
2022-09-12T23:23:45.388Z,93.70
2022-09-12T23:26:17.244Z,93.93
2022-09-12T23:28:50.139Z,93.81
2022-09-12T23:31:18.567Z,94.38
2022-09-12T23:33:46.938Z,94.71
2022-09-12T23:36:15.128Z,94.78
2022-09-12T23:38:44.723Z,97.04
2022-09-12T23:41:15.191Z,96.11
2022-09-12T23:43:45.256Z,95.65
2022-09-12T23:46:13.881Z,94.51
2022-09-12T23:48:42.302Z,96.16
2022-09-12T23:51:11.153Z,96.39
2022-09-12T23:53:39.212Z,96.13
2022-09-12T23:56:07.598Z,96.63
2022-09-12T23:58:36.881Z,97.70
